sensor_id;sensor_type;location;lat;lon;timestamp;P1;durP1;ratioP1;P2;durP2;ratioP2
21274;SDS011;36472;52.170;20.884;2022-10-31T00:01:37;54.75;;;39.75;;
21274;SDS011;36472;52.170;20.884;2022-10-31T00:04:07;58.33;;;41.08;;
21274;SDS011;36472;52.170;20.884;2022-10-31T00:06:35;54.97;;;39.47;;
21274;SDS011;36472;52.170;20.884;2022-10-31T00:09:04;55.78;;;39.17;;
21274;SDS011;36472;52.170;20.884;2022-10-31T00:11:34;51.70;;;37.85;;
21274;SDS011;36472;52.170;20.884;2022-10-31T00:14:03;52.80;;;37.20;;
21274;SDS011;36472;52.170;20.884;2022-10-31T00:16:32;51.80;;;37.35;;
21274;SDS011;36472;52.170;20.884;2022-10-31T00:19:01;50.10;;;35.72;;
21274;SDS011;36472;52.170;20.884;2022-10-31T00:21:33;55.35;;;36.90;;
21274;SDS011;36472;52.170;20.884;2022-10-31T00:24:03;50.38;;;36.35;;
21274;SDS011;36472;52.170;20.884;2022-10-31T00:26:34;52.50;;;36.30;;
21274;SDS011;36472;52.170;20.884;2022-10-31T00:29:03;48.58;;;36.05;;
21274;SDS011;36472;52.170;20.884;2022-10-31T00:31:32;50.25;;;35.35;;
21274;SDS011;36472;52.170;20.884;2022-10-31T00:34:01;46.05;;;35.00;;
21274;SDS011;36472;52.170;20.884;2022-10-31T00:36:30;52.03;;;35.55;;
21274;SDS011;36472;52.170;20.884;2022-10-31T00:38:59;51.55;;;35.70;;
21274;SDS011;36472;52.170;20.884;2022-10-31T00:41:28;49.50;;;35.28;;
21274;SDS011;36472;52.170;20.884;2022-10-31T00:43:58;51.20;;;37.03;;
21274;SDS011;36472;52.170;20.884;2022-10-31T00:46:27;50.85;;;36.60;;
21274;SDS011;36472;52.170;20.884;2022-10-31T00:48:55;49.22;;;37.33;;
21274;SDS011;36472;52.170;20.884;2022-10-31T00:51:24;51.10;;;36.17;;
21274;SDS011;36472;52.170;20.884;2022-10-31T00:53:53;51.95;;;37.75;;
21274;SDS011;36472;52.170;20.884;2022-10-31T00:56:21;47.58;;;35.67;;
21274;SDS011;36472;52.170;20.884;2022-10-31T00:58:51;51.00;;;36.20;;
21274;SDS011;36472;52.170;20.884;2022-10-31T01:01:21;51.80;;;36.28;;
21274;SDS011;36472;52.170;20.884;2022-10-31T01:03:50;50.10;;;35.45;;
21274;SDS011;36472;52.170;20.884;2022-10-31T01:06:18;45.83;;;35.65;;
21274;SDS011;36472;52.170;20.884;2022-10-31T01:08:47;49.60;;;35.35;;
21274;SDS011;36472;52.170;20.884;2022-10-31T01:11:18;47.17;;;35.75;;
21274;SDS011;36472;52.170;20.884;2022-10-31T01:13:49;52.22;;;35.65;;
21274;SDS011;36472;52.170;20.884;2022-10-31T01:16:23;48.53;;;34.83;;
21274;SDS011;36472;52.170;20.884;2022-10-31T01:18:55;47.40;;;33.47;;
21274;SDS011;36472;52.170;20.884;2022-10-31T01:21:27;42.00;;;32.25;;
21274;SDS011;36472;52.170;20.884;2022-10-31T01:23:58;45.28;;;33.00;;
21274;SDS011;36472;52.170;20.884;2022-10-31T01:26:29;51.08;;;33.83;;
21274;SDS011;36472;52.170;20.884;2022-10-31T01:29:01;45.38;;;34.00;;
21274;SDS011;36472;52.170;20.884;2022-10-31T01:31:36;43.88;;;32.47;;
21274;SDS011;36472;52.170;20.884;2022-10-31T01:34:07;44.38;;;31.50;;
21274;SDS011;36472;52.170;20.884;2022-10-31T01:36:42;44.15;;;31.95;;
21274;SDS011;36472;52.170;20.884;2022-10-31T01:39:15;42.55;;;31.10;;
21274;SDS011;36472;52.170;20.884;2022-10-31T01:41:44;43.42;;;31.73;;
21274;SDS011;36472;52.170;20.884;2022-10-31T01:47:39;40.67;;;31.38;;
21274;SDS011;36472;52.170;20.884;2022-10-31T01:50:17;43.20;;;30.98;;
21274;SDS011;36472;52.170;20.884;2022-10-31T01:52:57;45.13;;;32.08;;
21274;SDS011;36472;52.170;20.884;2022-10-31T01:55:29;42.20;;;31.88;;
21274;SDS011;36472;52.170;20.884;2022-10-31T01:58:04;43.22;;;32.67;;
21274;SDS011;36472;52.170;20.884;2022-10-31T02:00:38;40.75;;;30.92;;
21274;SDS011;36472;52.170;20.884;2022-10-31T02:03:11;44.50;;;32.47;;
21274;SDS011;36472;52.170;20.884;2022-10-31T02:05:40;40.95;;;31.08;;
21274;SDS011;36472;52.170;20.884;2022-10-31T02:08:12;43.60;;;30.98;;
21274;SDS011;36472;52.170;20.884;2022-10-31T02:10:49;40.60;;;30.05;;
21274;SDS011;36472;52.170;20.884;2022-10-31T02:13:17;41.70;;;30.92;;
21274;SDS011;36472;52.170;20.884;2022-10-31T02:15:49;39.70;;;30.27;;
21274;SDS011;36472;52.170;20.884;2022-10-31T02:18:24;41.53;;;31.45;;
21274;SDS011;36472;52.170;20.884;2022-10-31T02:20:58;43.92;;;30.73;;
21274;SDS011;36472;52.170;20.884;2022-10-31T02:24:00;40.47;;;29.85;;
21274;SDS011;36472;52.170;20.884;2022-10-31T02:27:07;40.75;;;31.73;;
21274;SDS011;36472;52.170;20.884;2022-10-31T02:29:54;39.30;;;29.75;;
21274;SDS011;36472;52.170;20.884;2022-10-31T02:32:45;41.25;;;29.08;;
21274;SDS011;36472;52.170;20.884;2022-10-31T02:35:46;39.38;;;29.48;;
21274;SDS011;36472;52.170;20.884;2022-10-31T02:38:36;42.88;;;30.73;;
21274;SDS011;36472;52.170;20.884;2022-10-31T02:41:30;39.95;;;29.23;;
21274;SDS011;36472;52.170;20.884;2022-10-31T02:44:11;41.80;;;29.38;;
21274;SDS011;36472;52.170;20.884;2022-10-31T02:46:49;39.35;;;28.40;;
21274;SDS011;36472;52.170;20.884;2022-10-31T02:49:26;40.65;;;29.60;;
21274;SDS011;36472;52.170;20.884;2022-10-31T02:52:01;42.45;;;30.45;;
21274;SDS011;36472;52.170;20.884;2022-10-31T02:54:30;39.35;;;29.52;;
21274;SDS011;36472;52.170;20.884;2022-10-31T02:57:00;43.58;;;31.50;;
21274;SDS011;36472;52.170;20.884;2022-10-31T02:59:35;41.55;;;30.73;;
21274;SDS011;36472;52.170;20.884;2022-10-31T03:02:20;40.65;;;30.48;;
21274;SDS011;36472;52.170;20.884;2022-10-31T03:05:26;39.97;;;29.75;;
21274;SDS011;36472;52.170;20.884;2022-10-31T03:08:18;41.53;;;31.10;;
21274;SDS011;36472;52.170;20.884;2022-10-31T03:10:58;40.53;;;31.45;;
21274;SDS011;36472;52.170;20.884;2022-10-31T03:13:33;43.40;;;31.88;;
21274;SDS011;36472;52.170;20.884;2022-10-31T03:16:10;38.05;;;29.60;;
21274;SDS011;36472;52.170;20.884;2022-10-31T03:18:46;41.20;;;29.98;;
21274;SDS011;36472;52.170;20.884;2022-10-31T03:21:29;40.65;;;29.90;;
21274;SDS011;36472;52.170;20.884;2022-10-31T03:24:04;41.30;;;29.42;;
21274;SDS011;36472;52.170;20.884;2022-10-31T03:26:36;41.13;;;28.75;;
21274;SDS011;36472;52.170;20.884;2022-10-31T03:29:13;37.90;;;28.45;;
21274;SDS011;36472;52.170;20.884;2022-10-31T03:31:47;39.10;;;29.10;;
21274;SDS011;36472;52.170;20.884;2022-10-31T03:34:22;40.78;;;29.67;;
21274;SDS011;36472;52.170;20.884;2022-10-31T03:36:53;42.97;;;31.20;;
21274;SDS011;36472;52.170;20.884;2022-10-31T03:39:27;36.05;;;28.30;;
21274;SDS011;36472;52.170;20.884;2022-10-31T03:41:59;39.33;;;29.40;;
21274;SDS011;36472;52.170;20.884;2022-10-31T03:44:33;34.13;;;26.95;;
21274;SDS011;36472;52.170;20.884;2022-10-31T03:47:06;38.78;;;28.52;;
21274;SDS011;36472;52.170;20.884;2022-10-31T03:49:35;36.85;;;28.33;;
21274;SDS011;36472;52.170;20.884;2022-10-31T03:52:07;40.13;;;29.38;;
21274;SDS011;36472;52.170;20.884;2022-10-31T03:54:48;34.40;;;27.15;;
21274;SDS011;36472;52.170;20.884;2022-10-31T03:57:29;37.42;;;28.85;;
21274;SDS011;36472;52.170;20.884;2022-10-31T04:00:07;39.72;;;30.02;;
21274;SDS011;36472;52.170;20.884;2022-10-31T04:02:46;36.53;;;28.77;;
21274;SDS011;36472;52.170;20.884;2022-10-31T04:05:25;39.47;;;29.38;;
21274;SDS011;36472;52.170;20.884;2022-10-31T04:08:00;37.35;;;28.20;;
21274;SDS011;36472;52.170;20.884;2022-10-31T04:10:35;37.10;;;28.15;;
21274;SDS011;36472;52.170;20.884;2022-10-31T04:13:08;37.72;;;28.48;;
21274;SDS011;36472;52.170;20.884;2022-10-31T04:15:56;34.97;;;27.88;;
21274;SDS011;36472;52.170;20.884;2022-10-31T04:18:28;36.05;;;28.45;;
21274;SDS011;36472;52.170;20.884;2022-10-31T04:21:00;34.95;;;27.05;;
21274;SDS011;36472;52.170;20.884;2022-10-31T04:23:32;35.45;;;26.42;;
21274;SDS011;36472;52.170;20.884;2022-10-31T04:26:10;36.83;;;27.80;;
21274;SDS011;36472;52.170;20.884;2022-10-31T04:28:43;34.53;;;27.40;;
21274;SDS011;36472;52.170;20.884;2022-10-31T04:31:12;34.53;;;27.65;;
21274;SDS011;36472;52.170;20.884;2022-10-31T04:33:44;36.78;;;27.55;;
21274;SDS011;36472;52.170;20.884;2022-10-31T04:36:13;38.33;;;27.85;;
21274;SDS011;36472;52.170;20.884;2022-10-31T04:38:43;36.97;;;28.08;;
21274;SDS011;36472;52.170;20.884;2022-10-31T04:41:25;36.03;;;28.23;;
21274;SDS011;36472;52.170;20.884;2022-10-31T04:44:00;34.00;;;27.17;;
21274;SDS011;36472;52.170;20.884;2022-10-31T04:46:29;38.10;;;26.88;;
21274;SDS011;36472;52.170;20.884;2022-10-31T04:48:58;34.92;;;27.50;;
21274;SDS011;36472;52.170;20.884;2022-10-31T04:51:27;34.47;;;26.42;;
21274;SDS011;36472;52.170;20.884;2022-10-31T04:53:57;34.35;;;26.60;;
21274;SDS011;36472;52.170;20.884;2022-10-31T04:56:44;31.50;;;25.00;;
21274;SDS011;36472;52.170;20.884;2022-10-31T04:59:19;33.45;;;25.80;;
21274;SDS011;36472;52.170;20.884;2022-10-31T05:01:51;31.48;;;25.25;;
21274;SDS011;36472;52.170;20.884;2022-10-31T05:04:40;32.47;;;25.80;;
21274;SDS011;36472;52.170;20.884;2022-10-31T05:07:09;33.00;;;25.30;;
21274;SDS011;36472;52.170;20.884;2022-10-31T05:09:39;38.38;;;25.77;;
21274;SDS011;36472;52.170;20.884;2022-10-31T05:12:07;33.30;;;24.65;;
21274;SDS011;36472;52.170;20.884;2022-10-31T05:14:55;33.72;;;24.65;;
21274;SDS011;36472;52.170;20.884;2022-10-31T05:17:42;31.58;;;25.27;;
21274;SDS011;36472;52.170;20.884;2022-10-31T05:20:30;31.23;;;24.60;;
21274;SDS011;36472;52.170;20.884;2022-10-31T05:23:25;31.48;;;24.60;;
21274;SDS011;36472;52.170;20.884;2022-10-31T05:25:55;30.02;;;23.48;;
21274;SDS011;36472;52.170;20.884;2022-10-31T05:28:24;30.80;;;23.77;;
21274;SDS011;36472;52.170;20.884;2022-10-31T05:30:53;30.15;;;24.58;;
21274;SDS011;36472;52.170;20.884;2022-10-31T05:33:22;31.73;;;24.48;;
21274;SDS011;36472;52.170;20.884;2022-10-31T05:36:03;30.80;;;23.60;;
21274;SDS011;36472;52.170;20.884;2022-10-31T05:38:35;35.40;;;24.90;;
21274;SDS011;36472;52.170;20.884;2022-10-31T05:41:20;28.92;;;23.40;;
21274;SDS011;36472;52.170;20.884;2022-10-31T05:43:49;31.88;;;24.13;;
21274;SDS011;36472;52.170;20.884;2022-10-31T05:46:23;28.98;;;23.40;;
21274;SDS011;36472;52.170;20.884;2022-10-31T05:49:27;32.88;;;23.60;;
21274;SDS011;36472;52.170;20.884;2022-10-31T05:52:27;27.92;;;22.70;;
21274;SDS011;36472;52.170;20.884;2022-10-31T05:55:06;26.23;;;21.35;;
21274;SDS011;36472;52.170;20.884;2022-10-31T05:57:41;27.10;;;20.90;;
21274;SDS011;36472;52.170;20.884;2022-10-31T06:00:10;26.17;;;20.98;;
21274;SDS011;36472;52.170;20.884;2022-10-31T06:02:47;24.35;;;20.50;;
21274;SDS011;36472;52.170;20.884;2022-10-31T06:05:24;29.33;;;22.08;;
21274;SDS011;36472;52.170;20.884;2022-10-31T06:07:54;26.95;;;21.55;;
21274;SDS011;36472;52.170;20.884;2022-10-31T06:10:23;28.33;;;21.95;;
21274;SDS011;36472;52.170;20.884;2022-10-31T06:12:56;25.10;;;20.15;;
21274;SDS011;36472;52.170;20.884;2022-10-31T06:15:40;25.65;;;19.48;;
21274;SDS011;36472;52.170;20.884;2022-10-31T06:18:11;29.63;;;20.98;;
21274;SDS011;36472;52.170;20.884;2022-10-31T06:20:48;25.65;;;20.42;;
21274;SDS011;36472;52.170;20.884;2022-10-31T06:23:17;27.10;;;20.77;;
21274;SDS011;36472;52.170;20.884;2022-10-31T06:25:50;26.17;;;20.38;;
21274;SDS011;36472;52.170;20.884;2022-10-31T06:28:21;26.60;;;20.67;;
21274;SDS011;36472;52.170;20.884;2022-10-31T06:30:53;25.33;;;18.63;;
21274;SDS011;36472;52.170;20.884;2022-10-31T06:33:22;26.70;;;19.52;;
21274;SDS011;36472;52.170;20.884;2022-10-31T06:36:01;24.35;;;19.48;;
21274;SDS011;36472;52.170;20.884;2022-10-31T06:38:31;25.00;;;18.58;;
21274;SDS011;36472;52.170;20.884;2022-10-31T06:41:01;24.60;;;17.58;;
21274;SDS011;36472;52.170;20.884;2022-10-31T06:43:48;22.45;;;17.20;;
21274;SDS011;36472;52.170;20.884;2022-10-31T06:46:37;21.98;;;16.73;;
21274;SDS011;36472;52.170;20.884;2022-10-31T06:49:29;23.35;;;16.55;;
21274;SDS011;36472;52.170;20.884;2022-10-31T06:52:01;18.75;;;15.68;;
21274;SDS011;36472;52.170;20.884;2022-10-31T06:54:31;21.98;;;15.63;;
21274;SDS011;36472;52.170;20.884;2022-10-31T06:57:00;19.05;;;15.23;;
21274;SDS011;36472;52.170;20.884;2022-10-31T06:59:30;21.90;;;16.38;;
21274;SDS011;36472;52.170;20.884;2022-10-31T07:02:18;20.27;;;15.52;;
21274;SDS011;36472;52.170;20.884;2022-10-31T07:04:48;21.05;;;15.90;;
21274;SDS011;36472;52.170;20.884;2022-10-31T07:07:17;21.27;;;16.50;;
21274;SDS011;36472;52.170;20.884;2022-10-31T07:09:49;22.08;;;16.38;;
21274;SDS011;36472;52.170;20.884;2022-10-31T07:12:24;22.60;;;16.98;;
21274;SDS011;36472;52.170;20.884;2022-10-31T07:14:59;24.88;;;18.08;;
21274;SDS011;36472;52.170;20.884;2022-10-31T07:17:29;23.42;;;17.67;;
21274;SDS011;36472;52.170;20.884;2022-10-31T07:19:59;25.88;;;19.35;;
21274;SDS011;36472;52.170;20.884;2022-10-31T07:22:32;26.77;;;18.98;;
21274;SDS011;36472;52.170;20.884;2022-10-31T07:25:04;26.63;;;18.63;;
21274;SDS011;36472;52.170;20.884;2022-10-31T07:27:51;29.42;;;19.48;;
21274;SDS011;36472;52.170;20.884;2022-10-31T07:30:22;27.00;;;19.10;;
21274;SDS011;36472;52.170;20.884;2022-10-31T07:32:54;22.88;;;17.17;;
21274;SDS011;36472;52.170;20.884;2022-10-31T07:35:31;25.13;;;17.10;;
21274;SDS011;36472;52.170;20.884;2022-10-31T07:38:08;25.38;;;18.40;;
21274;SDS011;36472;52.170;20.884;2022-10-31T07:40:38;24.58;;;17.10;;
21274;SDS011;36472;52.170;20.884;2022-10-31T07:43:08;25.00;;;17.45;;
21274;SDS011;36472;52.170;20.884;2022-10-31T07:46:04;23.60;;;17.08;;
21274;SDS011;36472;52.170;20.884;2022-10-31T07:48:56;22.13;;;16.95;;
21274;SDS011;36472;52.170;20.884;2022-10-31T07:51:43;22.50;;;17.05;;
21274;SDS011;36472;52.170;20.884;2022-10-31T07:54:30;22.10;;;16.83;;
21274;SDS011;36472;52.170;20.884;2022-10-31T07:56:59;23.75;;;16.20;;
21274;SDS011;36472;52.170;20.884;2022-10-31T07:59:28;23.65;;;16.38;;
21274;SDS011;36472;52.170;20.884;2022-10-31T08:01:58;23.58;;;17.02;;
21274;SDS011;36472;52.170;20.884;2022-10-31T08:04:47;23.63;;;16.73;;
21274;SDS011;36472;52.170;20.884;2022-10-31T08:07:35;24.27;;;16.50;;
21274;SDS011;36472;52.170;20.884;2022-10-31T08:10:11;25.15;;;16.83;;
21274;SDS011;36472;52.170;20.884;2022-10-31T08:12:40;24.92;;;17.33;;
21274;SDS011;36472;52.170;20.884;2022-10-31T08:15:09;22.55;;;15.52;;
21274;SDS011;36472;52.170;20.884;2022-10-31T08:17:39;22.05;;;15.48;;
21274;SDS011;36472;52.170;20.884;2022-10-31T08:20:09;21.20;;;15.15;;
21274;SDS011;36472;52.170;20.884;2022-10-31T08:22:52;21.10;;;15.75;;
21274;SDS011;36472;52.170;20.884;2022-10-31T08:25:22;25.10;;;16.20;;
21274;SDS011;36472;52.170;20.884;2022-10-31T08:27:52;19.73;;;15.52;;
21274;SDS011;36472;52.170;20.884;2022-10-31T08:30:24;22.35;;;16.25;;
21274;SDS011;36472;52.170;20.884;2022-10-31T08:33:16;20.38;;;16.05;;
21274;SDS011;36472;52.170;20.884;2022-10-31T08:36:04;19.58;;;15.23;;
21274;SDS011;36472;52.170;20.884;2022-10-31T08:38:52;19.15;;;13.90;;
21274;SDS011;36472;52.170;20.884;2022-10-31T08:41:28;19.85;;;16.08;;
21274;SDS011;36472;52.170;20.884;2022-10-31T08:43:59;22.27;;;16.92;;
21274;SDS011;36472;52.170;20.884;2022-10-31T08:46:27;22.27;;;17.15;;
21274;SDS011;36472;52.170;20.884;2022-10-31T08:48:57;24.73;;;17.42;;
21274;SDS011;36472;52.170;20.884;2022-10-31T08:51:27;22.05;;;17.48;;
21274;SDS011;36472;52.170;20.884;2022-10-31T08:53:56;23.13;;;17.70;;
21274;SDS011;36472;52.170;20.884;2022-10-31T08:56:43;26.20;;;18.73;;
21274;SDS011;36472;52.170;20.884;2022-10-31T08:59:27;22.90;;;18.02;;
21274;SDS011;36472;52.170;20.884;2022-10-31T09:02:14;23.08;;;17.50;;
21274;SDS011;36472;52.170;20.884;2022-10-31T09:04:44;23.63;;;18.48;;
21274;SDS011;36472;52.170;20.884;2022-10-31T09:07:13;24.38;;;19.35;;
21274;SDS011;36472;52.170;20.884;2022-10-31T09:09:47;27.95;;;19.77;;
21274;SDS011;36472;52.170;20.884;2022-10-31T09:12:18;25.67;;;19.73;;
21274;SDS011;36472;52.170;20.884;2022-10-31T09:15:05;25.40;;;19.50;;
21274;SDS011;36472;52.170;20.884;2022-10-31T09:17:57;27.42;;;20.20;;
21274;SDS011;36472;52.170;20.884;2022-10-31T09:20:39;26.15;;;18.25;;
21274;SDS011;36472;52.170;20.884;2022-10-31T09:23:10;26.52;;;18.58;;
21274;SDS011;36472;52.170;20.884;2022-10-31T09:25:43;24.63;;;19.77;;
21274;SDS011;36472;52.170;20.884;2022-10-31T09:28:35;23.67;;;18.42;;
21274;SDS011;36472;52.170;20.884;2022-10-31T09:31:12;25.13;;;18.10;;
21274;SDS011;36472;52.170;20.884;2022-10-31T09:34:04;24.92;;;18.38;;
21274;SDS011;36472;52.170;20.884;2022-10-31T09:36:37;24.17;;;18.55;;
21274;SDS011;36472;52.170;20.884;2022-10-31T09:39:11;23.98;;;17.73;;
21274;SDS011;36472;52.170;20.884;2022-10-31T09:41:48;28.13;;;19.60;;
21274;SDS011;36472;52.170;20.884;2022-10-31T09:44:58;27.70;;;19.52;;
21274;SDS011;36472;52.170;20.884;2022-10-31T09:47:40;27.65;;;19.60;;
21274;SDS011;36472;52.170;20.884;2022-10-31T09:50:32;24.90;;;18.63;;
21274;SDS011;36472;52.170;20.884;2022-10-31T09:53:43;29.33;;;20.67;;
21274;SDS011;36472;52.170;20.884;2022-10-31T09:56:21;30.58;;;20.50;;
21274;SDS011;36472;52.170;20.884;2022-10-31T09:58:57;28.17;;;21.08;;
21274;SDS011;36472;52.170;20.884;2022-10-31T10:01:30;27.08;;;19.45;;
21274;SDS011;36472;52.170;20.884;2022-10-31T10:04:22;28.92;;;20.02;;
21274;SDS011;36472;52.170;20.884;2022-10-31T10:07:11;28.67;;;20.60;;
21274;SDS011;36472;52.170;20.884;2022-10-31T10:10:22;29.73;;;20.92;;
21274;SDS011;36472;52.170;20.884;2022-10-31T10:13:30;25.35;;;19.58;;
21274;SDS011;36472;52.170;20.884;2022-10-31T10:16:24;26.90;;;18.25;;
21274;SDS011;36472;52.170;20.884;2022-10-31T10:19:24;25.77;;;19.50;;
21274;SDS011;36472;52.170;20.884;2022-10-31T10:22:12;30.08;;;20.40;;
21274;SDS011;36472;52.170;20.884;2022-10-31T10:24:55;30.15;;;21.13;;
21274;SDS011;36472;52.170;20.884;2022-10-31T10:27:45;29.50;;;21.52;;
21274;SDS011;36472;52.170;20.884;2022-10-31T10:30:28;26.67;;;20.63;;
21274;SDS011;36472;52.170;20.884;2022-10-31T10:33:09;31.10;;;21.92;;
21274;SDS011;36472;52.170;20.884;2022-10-31T10:35:47;28.40;;;21.35;;
21274;SDS011;36472;52.170;20.884;2022-10-31T10:38:23;30.17;;;22.83;;
21274;SDS011;36472;52.170;20.884;2022-10-31T10:40:58;32.58;;;24.48;;
21274;SDS011;36472;52.170;20.884;2022-10-31T10:43:34;37.33;;;26.02;;
21274;SDS011;36472;52.170;20.884;2022-10-31T10:46:13;34.20;;;25.13;;
21274;SDS011;36472;52.170;20.884;2022-10-31T10:49:09;40.75;;;30.23;;
21274;SDS011;36472;52.170;20.884;2022-10-31T10:51:54;36.97;;;26.50;;
21274;SDS011;36472;52.170;20.884;2022-10-31T10:54:49;31.85;;;23.50;;
21274;SDS011;36472;52.170;20.884;2022-10-31T10:57:33;34.45;;;23.80;;
21274;SDS011;36472;52.170;20.884;2022-10-31T11:00:19;34.67;;;25.08;;
21274;SDS011;36472;52.170;20.884;2022-10-31T11:02:50;31.95;;;23.95;;
21274;SDS011;36472;52.170;20.884;2022-10-31T11:05:24;30.58;;;22.58;;
21274;SDS011;36472;52.170;20.884;2022-10-31T11:08:02;29.48;;;22.48;;
21274;SDS011;36472;52.170;20.884;2022-10-31T11:10:32;32.05;;;21.52;;
21274;SDS011;36472;52.170;20.884;2022-10-31T11:13:03;29.00;;;22.17;;
21274;SDS011;36472;52.170;20.884;2022-10-31T11:15:55;29.85;;;21.92;;
21274;SDS011;36472;52.170;20.884;2022-10-31T11:18:27;32.38;;;24.13;;
21274;SDS011;36472;52.170;20.884;2022-10-31T11:21:00;34.55;;;25.58;;
21274;SDS011;36472;52.170;20.884;2022-10-31T11:23:31;38.40;;;26.90;;
21274;SDS011;36472;52.170;20.884;2022-10-31T11:26:02;38.35;;;28.77;;
21274;SDS011;36472;52.170;20.884;2022-10-31T11:28:55;39.85;;;29.10;;
21274;SDS011;36472;52.170;20.884;2022-10-31T11:31:27;33.13;;;23.92;;
21274;SDS011;36472;52.170;20.884;2022-10-31T11:34:00;34.08;;;22.83;;
21274;SDS011;36472;52.170;20.884;2022-10-31T11:36:34;35.60;;;22.88;;
21274;SDS011;36472;52.170;20.884;2022-10-31T11:39:13;34.25;;;23.25;;
21274;SDS011;36472;52.170;20.884;2022-10-31T11:41:48;30.67;;;22.65;;
21274;SDS011;36472;52.170;20.884;2022-10-31T11:44:20;31.42;;;22.45;;
21274;SDS011;36472;52.170;20.884;2022-10-31T11:46:56;29.85;;;22.52;;
21274;SDS011;36472;52.170;20.884;2022-10-31T11:49:29;32.55;;;22.42;;
21274;SDS011;36472;52.170;20.884;2022-10-31T11:52:04;33.28;;;22.63;;
21274;SDS011;36472;52.170;20.884;2022-10-31T11:54:38;40.20;;;26.77;;
21274;SDS011;36472;52.170;20.884;2022-10-31T11:57:24;39.67;;;25.83;;
21274;SDS011;36472;52.170;20.884;2022-10-31T11:59:57;37.35;;;26.50;;
21274;SDS011;36472;52.170;20.884;2022-10-31T12:02:39;42.40;;;27.40;;
21274;SDS011;36472;52.170;20.884;2022-10-31T12:05:08;39.78;;;26.02;;
21274;SDS011;36472;52.170;20.884;2022-10-31T12:07:50;47.70;;;30.25;;
21274;SDS011;36472;52.170;20.884;2022-10-31T12:10:20;46.67;;;29.17;;
21274;SDS011;36472;52.170;20.884;2022-10-31T12:13:01;46.85;;;27.30;;
21274;SDS011;36472;52.170;20.884;2022-10-31T12:15:50;41.15;;;27.13;;
21274;SDS011;36472;52.170;20.884;2022-10-31T12:18:32;48.90;;;30.15;;
21274;SDS011;36472;52.170;20.884;2022-10-31T12:21:18;50.63;;;30.48;;
21274;SDS011;36472;52.170;20.884;2022-10-31T12:24:06;44.33;;;28.48;;
21274;SDS011;36472;52.170;20.884;2022-10-31T12:26:52;45.22;;;29.98;;
21274;SDS011;36472;52.170;20.884;2022-10-31T12:29:43;48.78;;;29.25;;
21274;SDS011;36472;52.170;20.884;2022-10-31T12:32:29;46.33;;;28.25;;
21274;SDS011;36472;52.170;20.884;2022-10-31T12:35:19;49.38;;;29.77;;
21274;SDS011;36472;52.170;20.884;2022-10-31T12:38:08;49.05;;;30.95;;
21274;SDS011;36472;52.170;20.884;2022-10-31T12:41:10;54.10;;;31.77;;
21274;SDS011;36472;52.170;20.884;2022-10-31T12:43:56;57.25;;;33.38;;
21274;SDS011;36472;52.170;20.884;2022-10-31T12:46:43;55.88;;;33.33;;
21274;SDS011;36472;52.170;20.884;2022-10-31T12:49:38;54.08;;;32.30;;
21274;SDS011;36472;52.170;20.884;2022-10-31T12:52:26;54.67;;;31.52;;
21274;SDS011;36472;52.170;20.884;2022-10-31T12:55:14;51.78;;;29.73;;
21274;SDS011;36472;52.170;20.884;2022-10-31T12:58:00;53.95;;;31.67;;
21274;SDS011;36472;52.170;20.884;2022-10-31T13:00:36;49.03;;;27.58;;
21274;SDS011;36472;52.170;20.884;2022-10-31T13:03:17;45.90;;;29.38;;
21274;SDS011;36472;52.170;20.884;2022-10-31T13:06:02;47.70;;;29.08;;
21274;SDS011;36472;52.170;20.884;2022-10-31T13:08:39;49.95;;;29.55;;
21274;SDS011;36472;52.170;20.884;2022-10-31T13:11:15;45.10;;;27.65;;
21274;SDS011;36472;52.170;20.884;2022-10-31T13:13:52;48.58;;;28.85;;
21274;SDS011;36472;52.170;20.884;2022-10-31T13:16:29;50.40;;;28.98;;
21274;SDS011;36472;52.170;20.884;2022-10-31T13:19:08;48.92;;;28.65;;
21274;SDS011;36472;52.170;20.884;2022-10-31T13:21:49;50.10;;;30.40;;
21274;SDS011;36472;52.170;20.884;2022-10-31T13:24:30;54.15;;;29.83;;
21274;SDS011;36472;52.170;20.884;2022-10-31T13:27:09;42.20;;;27.75;;
21274;SDS011;36472;52.170;20.884;2022-10-31T13:29:50;43.78;;;28.00;;
21274;SDS011;36472;52.170;20.884;2022-10-31T13:32:30;51.03;;;30.42;;
21274;SDS011;36472;52.170;20.884;2022-10-31T13:35:12;47.88;;;29.40;;
21274;SDS011;36472;52.170;20.884;2022-10-31T13:37:51;48.83;;;29.83;;
21274;SDS011;36472;52.170;20.884;2022-10-31T13:40:36;50.85;;;29.05;;
21274;SDS011;36472;52.170;20.884;2022-10-31T13:43:26;42.35;;;27.33;;
21274;SDS011;36472;52.170;20.884;2022-10-31T13:46:21;45.97;;;27.88;;
21274;SDS011;36472;52.170;20.884;2022-10-31T13:48:52;45.90;;;28.63;;
21274;SDS011;36472;52.170;20.884;2022-10-31T13:51:25;47.83;;;27.73;;
21274;SDS011;36472;52.170;20.884;2022-10-31T13:53:57;50.25;;;31.83;;
21274;SDS011;36472;52.170;20.884;2022-10-31T13:56:30;44.67;;;27.85;;
21274;SDS011;36472;52.170;20.884;2022-10-31T13:59:16;45.05;;;27.10;;
21274;SDS011;36472;52.170;20.884;2022-10-31T14:01:50;45.88;;;28.20;;
21274;SDS011;36472;52.170;20.884;2022-10-31T14:04:24;44.92;;;27.65;;
21274;SDS011;36472;52.170;20.884;2022-10-31T14:07:04;46.22;;;27.33;;
21274;SDS011;36472;52.170;20.884;2022-10-31T14:09:36;44.05;;;27.42;;
21274;SDS011;36472;52.170;20.884;2022-10-31T14:12:23;45.10;;;28.10;;
21274;SDS011;36472;52.170;20.884;2022-10-31T14:14:57;49.17;;;28.33;;
21274;SDS011;36472;52.170;20.884;2022-10-31T14:17:36;46.72;;;27.98;;
21274;SDS011;36472;52.170;20.884;2022-10-31T14:20:25;46.55;;;28.13;;
21274;SDS011;36472;52.170;20.884;2022-10-31T14:23:11;51.38;;;28.10;;
21274;SDS011;36472;52.170;20.884;2022-10-31T14:26:19;51.35;;;28.75;;
21274;SDS011;36472;52.170;20.884;2022-10-31T14:29:01;46.15;;;27.45;;
21274;SDS011;36472;52.170;20.884;2022-10-31T14:31:52;44.25;;;26.88;;
21274;SDS011;36472;52.170;20.884;2022-10-31T14:34:26;49.42;;;26.80;;
21274;SDS011;36472;52.170;20.884;2022-10-31T14:37:01;48.83;;;28.70;;
21274;SDS011;36472;52.170;20.884;2022-10-31T14:40:10;47.03;;;25.90;;
21274;SDS011;36472;52.170;20.884;2022-10-31T14:43:02;54.97;;;29.80;;
21274;SDS011;36472;52.170;20.884;2022-10-31T14:46:29;52.65;;;29.42;;
21274;SDS011;36472;52.170;20.884;2022-10-31T14:49:18;64.03;;;32.80;;
21274;SDS011;36472;52.170;20.884;2022-10-31T14:52:07;60.67;;;31.75;;
21274;SDS011;36472;52.170;20.884;2022-10-31T14:54:39;57.25;;;31.40;;
21274;SDS011;36472;52.170;20.884;2022-10-31T14:57:15;62.80;;;32.33;;
21274;SDS011;36472;52.170;20.884;2022-10-31T14:59:50;61.45;;;31.42;;
21274;SDS011;36472;52.170;20.884;2022-10-31T15:02:31;59.28;;;31.42;;
21274;SDS011;36472;52.170;20.884;2022-10-31T15:05:09;61.22;;;32.83;;
21274;SDS011;36472;52.170;20.884;2022-10-31T15:07:48;58.72;;;31.58;;
21274;SDS011;36472;52.170;20.884;2022-10-31T15:10:20;62.75;;;32.47;;
21274;SDS011;36472;52.170;20.884;2022-10-31T15:12:52;59.88;;;31.35;;
21274;SDS011;36472;52.170;20.884;2022-10-31T15:15:22;60.42;;;33.58;;